Time;durP1;ratioP1;P1;durP2;ratioP2;P2;SDS_P1;SDS_P2;PMS_P1;PMS_P2;Temp;Humidity;BMP_temperature;BMP_pressure;BME280_temperature;BME280_humidity;BME280_pressure;Samples;Min_cycle;Max_cycle;Signal;HPM_P1;HPM_P2
2021/07/19 00:01:54;;;;;;;3.50;3.20;;;;;;;22.24;78.26;96640.81;5005531;28;20427;-56
2021/07/19 00:04:20;;;;;;;2.90;2.70;;;;;;;22.22;78.31;96637.63;5014480;28;20200;-62
2021/07/19 00:06:45;;;;;;;4.20;3.20;;;;;;;22.20;78.53;96637.13;5014593;28;20463;-57
2021/07/19 00:09:11;;;;;;;5.30;3.30;;;;;;;22.21;77.99;96649.44;5013388;28;20220;-56
2021/07/19 00:11:38;;;;;;;4.10;3.70;;;;;;;22.21;77.71;96642.19;5014507;28;20177;-56
2021/07/19 00:14:04;;;;;;;6.50;3.40;;;;;;;22.07;78.01;96640.53;4998681;28;20647;-62
2021/07/19 00:16:30;;;;;;;3.33;3.13;;;;;;;22.09;77.80;96638.38;4994842;28;20413;-56
2021/07/19 00:18:55;;;;;;;4.00;3.60;;;;;;;22.03;78.24;96645.69;4977286;28;20427;-62
2021/07/19 00:21:21;;;;;;;3.53;3.23;;;;;;;22.03;78.38;96632.28;4989046;28;20174;-62
2021/07/19 00:23:46;;;;;;;3.27;2.97;;;;;;;21.97;78.53;96633.47;4974885;28;20699;-62
2021/07/19 00:26:12;;;;;;;3.63;3.33;;;;;;;21.93;78.14;96637.00;4975382;28;20241;-56
2021/07/19 00:28:37;;;;;;;3.63;3.30;;;;;;;21.89;78.51;96639.47;4975259;28;20261;-56
2021/07/19 00:31:04;;;;;;;3.27;2.97;;;;;;;21.84;78.85;96642.22;4975058;28;20244;-62
2021/07/19 00:33:29;;;;;;;4.37;3.00;;;;;;;21.81;79.19;96637.47;4974769;28;20449;-57
2021/07/19 00:35:54;;;;;;;7.63;3.67;;;;;;;21.84;78.68;96650.25;4977488;28;20188;-62
2021/07/19 00:38:20;;;;;;;3.70;3.40;;;;;;;21.83;78.76;96645.19;4975103;28;20170;-56
2021/07/19 00:40:45;;;;;;;3.40;3.20;;;;;;;21.73;79.38;96637.28;4975180;28;20214;-56
2021/07/19 00:43:11;;;;;;;2.97;2.80;;;;;;;21.59;79.90;96641.75;4974766;28;20237;-56
2021/07/19 00:45:36;;;;;;;3.97;2.90;;;;;;;21.61;79.71;96644.94;4974769;28;20727;-62
2021/07/19 00:48:04;;;;;;;4.00;3.67;;;;;;;21.61;79.67;96643.06;4975124;28;20174;-62
2021/07/19 00:50:33;;;;;;;3.90;3.50;;;;;;;21.58;79.86;96635.59;4976022;28;20192;-62
2021/07/19 00:53:00;;;;;;;3.83;2.87;;;;;;;21.53;79.79;96627.66;4974558;28;20490;-62
2021/07/19 00:55:34;;;;;;;3.30;3.00;;;;;;;21.48;79.76;96631.19;4974917;28;20429;-62
2021/07/19 00:58:04;;;;;;;3.10;2.80;;;;;;;21.45;80.04;96631.75;4974934;28;20417;-62
2021/07/19 01:00:32;;;;;;;3.33;3.13;;;;;;;21.33;80.00;96628.72;4974851;28;20405;-57
2021/07/19 01:02:58;;;;;;;3.97;3.60;;;;;;;21.18;80.01;96626.22;5012659;28;20767;-62
2021/07/19 01:05:27;;;;;;;3.23;3.03;;;;;;;21.17;80.41;96630.00;4995185;28;20444;-62
2021/07/19 01:07:54;;;;;;;3.80;3.50;;;;;;;21.17;80.41;96630.00;4994355;28;20423;-62
2021/07/19 01:10:19;;;;;;;3.50;3.30;;;;;;;21.17;80.48;96624.66;4994091;28;20413;-56
2021/07/19 01:12:48;;;;;;;3.60;3.40;;;;;;;21.13;80.42;96625.50;4993680;28;20411;-56
2021/07/19 01:15:14;;;;;;;3.73;3.47;;;;;;;21.16;80.48;96627.59;4993826;28;20439;-57
2021/07/19 01:17:41;;;;;;;3.40;3.13;;;;;;;21.17;80.61;96626.50;4992490;28;20420;-57
2021/07/19 01:20:07;;;;;;;3.30;3.00;;;;;;;21.16;80.58;96622.25;4994118;28;20409;-56
2021/07/19 01:22:51;;;;;;;3.50;3.30;;;;;;;21.12;80.81;96630.06;4993967;28;20559;-56
2021/07/19 01:26:01;;;;;;;3.60;3.30;;;;;;;21.11;80.84;96619.63;4988935;28;20437;-61
2021/07/19 01:28:42;;;;;;;3.93;3.60;;;;;;;21.10;80.83;96621.53;4915092;29;20769;-62
2021/07/19 01:31:14;;;;;;;3.90;3.57;;;;;;;21.11;80.96;96624.97;4972665;28;20424;-56
2021/07/19 01:33:43;;;;;;;3.50;3.30;;;;;;;21.08;81.02;96621.00;4974403;28;20433;-62
2021/07/19 01:36:11;;;;;;;3.77;3.40;;;;;;;21.05;80.81;96621.56;4973459;28;20416;-62
2021/07/19 01:38:37;;;;;;;3.77;3.23;;;;;;;21.06;80.60;96617.03;4974607;28;20780;-62
2021/07/19 01:41:03;;;;;;;4.20;3.30;;;;;;;20.90;81.27;96623.59;4975475;28;20433;-56
2021/07/19 01:43:30;;;;;;;4.20;3.80;;;;;;;20.81;81.74;96619.94;4993416;28;20953;-56
2021/07/19 01:45:56;;;;;;;3.77;3.10;;;;;;;20.69;82.01;96614.22;4993839;28;20468;-56
2021/07/19 01:48:23;;;;;;;4.03;3.33;;;;;;;20.69;82.08;96615.00;4994115;28;20419;-56
2021/07/19 01:50:50;;;;;;;5.33;3.43;;;;;;;20.66;82.31;96610.22;4993672;28;20797;-56
2021/07/19 01:53:16;;;;;;;3.77;3.50;;;;;;;20.64;82.41;96614.25;4993373;28;20784;-62
2021/07/19 01:55:42;;;;;;;4.90;3.83;;;;;;;20.64;82.38;96609.69;4993701;28;20420;-56
2021/07/19 01:58:08;;;;;;;3.87;3.53;;;;;;;20.60;82.23;96614.00;4990294;28;20526;-62
2021/07/19 02:00:34;;;;;;;3.70;3.40;;;;;;;20.55;82.38;96610.59;4993480;28;20919;-56
2021/07/19 02:02:59;;;;;;;4.03;3.00;;;;;;;20.58;82.62;96613.53;5013421;28;20169;-62
2021/07/19 02:05:26;;;;;;;3.80;3.40;;;;;;;20.54;82.48;96614.34;5016881;28;20227;-56
2021/07/19 02:07:54;;;;;;;3.87;3.30;;;;;;;20.53;82.64;96610.09;5016964;28;20208;-56
2021/07/19 02:10:20;;;;;;;3.60;3.30;;;;;;;20.58;82.69;96618.06;5016920;28;20469;-62
2021/07/19 02:12:47;;;;;;;5.63;3.80;;;;;;;20.52;82.77;96616.50;4997584;28;20424;-62
2021/07/19 02:15:18;;;;;;;3.57;3.27;;;;;;;20.53;82.29;96615.44;4997112;28;20196;-62
2021/07/19 02:17:56;;;;;;;4.20;3.53;;;;;;;20.46;82.60;96618.44;4997248;28;20583;-56
2021/07/19 02:20:24;;;;;;;4.83;3.23;;;;;;;20.46;82.50;96621.91;4997415;28;20771;-61
2021/07/19 02:22:50;;;;;;;3.47;3.27;;;;;;;20.29;82.74;96621.50;4996799;28;20404;-57
2021/07/19 02:25:15;;;;;;;3.93;3.53;;;;;;;20.27;83.38;96622.88;4996634;28;20963;-60
2021/07/19 02:27:44;;;;;;;4.20;3.80;;;;;;;20.33;82.93;96627.88;4993739;28;20468;-62
2021/07/19 02:30:12;;;;;;;3.90;3.63;;;;;;;20.30;83.04;96636.47;4997084;28;20205;-62
2021/07/19 02:32:42;;;;;;;4.13;3.73;;;;;;;20.31;83.15;96629.25;4995412;28;20498;-57
2021/07/19 02:35:09;;;;;;;3.73;3.43;;;;;;;20.34;83.49;96621.50;4996819;28;20467;-63
2021/07/19 02:37:41;;;;;;;4.07;3.80;;;;;;;20.35;83.14;96616.94;4996865;28;20902;-56
2021/07/19 02:40:08;;;;;;;5.00;4.60;;;;;;;20.38;83.18;96613.72;4995436;28;20497;-62
2021/07/19 02:42:35;;;;;;;4.03;3.73;;;;;;;20.36;83.15;96619.31;4981737;28;20499;-62
2021/07/19 02:45:06;;;;;;;5.60;4.20;;;;;;;20.31;83.45;96624.69;4996571;28;20450;-57
2021/07/19 02:47:31;;;;;;;4.97;4.20;;;;;;;20.39;83.50;96626.78;4996664;28;20456;-56
2021/07/19 02:49:57;;;;;;;8.83;3.27;;;;;;;20.34;84.20;96615.34;4995388;28;20437;-62
2021/07/19 02:52:23;;;;;;;4.17;3.87;;;;;;;20.27;83.98;96622.88;4996486;28;20174;-57
2021/07/19 02:54:49;;;;;;;4.93;4.50;;;;;;;20.39;83.60;96616.09;4996202;28;20834;-56
2021/07/19 02:57:16;;;;;;;4.03;3.63;;;;;;;20.46;83.40;96615.75;4990700;28;20650;-57
2021/07/19 02:59:42;;;;;;;4.40;4.00;;;;;;;20.44;83.60;96621.38;4976951;28;20492;-62
2021/07/19 03:02:10;;;;;;;5.23;3.80;;;;;;;20.47;83.10;96625.38;5000528;28;20503;-62
2021/07/19 03:04:38;;;;;;;5.30;4.10;;;;;;;20.45;83.57;96619.53;5015383;28;20519;-63
2021/07/19 03:07:06;;;;;;;3.73;3.43;;;;;;;20.45;83.62;96620.28;5015805;28;20464;-57
2021/07/19 03:09:33;;;;;;;3.70;3.50;;;;;;;20.45;82.94;96622.97;5015709;28;20407;-62
2021/07/19 03:12:00;;;;;;;4.43;3.93;;;;;;;20.51;82.82;96625.63;5010638;28;20425;-56
2021/07/19 03:14:29;;;;;;;4.40;4.00;;;;;;;20.52;82.72;96619.19;4994676;28;20433;-62
2021/07/19 03:16:55;;;;;;;4.50;3.70;;;;;;;20.47;82.82;96620.81;4995911;28;20929;-62
2021/07/19 03:19:23;;;;;;;4.10;3.63;;;;;;;20.40;82.91;96615.00;4995907;28;20412;-56
2021/07/19 03:21:53;;;;;;;4.80;4.10;;;;;;;20.45;82.47;96609.63;4996021;28;20774;-62
2021/07/19 03:24:21;;;;;;;5.57;3.60;;;;;;;20.40;82.80;96603.53;4995702;28;20433;-62
2021/07/19 03:26:46;;;;;;;3.90;3.50;;;;;;;20.38;83.21;96608.38;4989841;28;20469;-57
2021/07/19 03:29:13;;;;;;;4.53;3.53;;;;;;;20.36;83.37;96599.84;4976474;28;20907;-62
2021/07/19 03:31:39;;;;;;;4.43;4.03;;;;;;;20.31;83.71;96598.00;4976319;28;20582;-56
2021/07/19 03:34:06;;;;;;;5.60;4.10;;;;;;;20.34;83.46;96597.47;4975811;28;20444;-62
2021/07/19 03:36:33;;;;;;;4.73;3.70;;;;;;;20.32;83.24;96599.63;4976283;28;20508;-62
2021/07/19 03:39:01;;;;;;;4.60;4.20;;;;;;;20.35;83.40;96604.38;4976664;28;20418;-63
2021/07/19 03:41:30;;;;;;;4.17;3.87;;;;;;;20.30;83.84;96601.78;4979820;28;20428;-62
2021/07/19 03:43:56;;;;;;;4.47;3.87;;;;;;;20.30;83.77;96608.97;4995120;28;20435;-56
2021/07/19 03:46:22;;;;;;;4.40;4.00;;;;;;;20.30;83.62;96606.31;4995232;28;20870;-56
2021/07/19 03:48:48;;;;;;;8.87;3.67;;;;;;;20.27;83.77;96604.19;4995494;28;20488;-62
2021/07/19 03:51:14;;;;;;;3.73;3.53;;;;;;;20.30;83.69;96604.44;4995364;28;20628;-56
2021/07/19 03:53:40;;;;;;;5.30;3.60;;;;;;;20.31;83.17;96603.34;4994999;28;20487;-62
2021/07/19 03:56:06;;;;;;;5.43;4.17;;;;;;;20.32;83.38;96604.97;4991912;28;20178;-62
2021/07/19 03:58:33;;;;;;;6.30;4.53;;;;;;;20.37;82.95;96599.56;4975888;28;20405;-56
2021/07/19 04:01:00;;;;;;;5.00;4.03;;;;;;;20.29;83.25;96602.84;4982048;28;20207;-56
2021/07/19 04:03:28;;;;;;;4.13;3.73;;;;;;;20.29;83.42;96600.16;5014356;28;20404;-62
2021/07/19 04:06:02;;;;;;;4.70;4.30;;;;;;;20.28;83.32;96598.59;4999349;28;20464;-63
2021/07/19 04:08:31;;;;;;;4.00;3.70;;;;;;;20.30;83.39;96600.97;4995157;28;20436;-62
2021/07/19 04:10:58;;;;;;;4.10;3.80;;;;;;;20.24;83.90;96605.56;4995139;28;20412;-56
2021/07/19 04:13:24;;;;;;;3.83;3.53;;;;;;;20.22;83.71;96606.91;4994519;28;20404;-56
2021/07/19 04:15:51;;;;;;;5.80;5.00;;;;;;;20.26;83.97;96607.94;4995013;28;20409;-57
2021/07/19 04:18:23;;;;;;;5.33;3.70;;;;;;;20.26;83.60;96614.06;4986566;28;20493;-62
2021/07/19 04:20:51;;;;;;;3.90;3.60;;;;;;;20.31;83.17;96613.22;4975493;28;20763;-56
2021/07/19 04:23:16;;;;;;;3.83;3.57;;;;;;;20.21;83.40;96614.13;4973755;28;20783;-62
2021/07/19 04:25:47;;;;;;;4.40;4.00;;;;;;;20.20;83.63;96612.53;4974944;28;20436;-56
2021/07/19 04:28:20;;;;;;;4.20;3.80;;;;;;;20.25;83.43;96625.03;4975506;28;20182;-62
2021/07/19 04:30:46;;;;;;;4.40;4.00;;;;;;;20.27;83.11;96612.97;4975549;28;20413;-57
2021/07/19 04:33:16;;;;;;;4.50;4.10;;;;;;;20.28;83.17;96616.47;4982459;28;20451;-62
2021/07/19 04:35:46;;;;;;;4.00;3.60;;;;;;;20.24;83.31;96618.91;4975130;28;20281;-56
2021/07/19 04:38:14;;;;;;;4.83;4.00;;;;;;;20.30;83.15;96620.44;4975309;28;20412;-56
2021/07/19 04:40:39;;;;;;;3.80;3.50;;;;;;;20.32;82.95;96612.97;4974991;28;20994;-62
2021/07/19 04:43:04;;;;;;;3.60;3.33;;;;;;;20.30;82.93;96616.97;4974572;28;20442;-62
2021/07/19 04:45:30;;;;;;;5.07;3.80;;;;;;;20.29;83.09;96608.16;4974694;28;20209;-62
2021/07/19 04:47:55;;;;;;;4.20;3.90;;;;;;;20.31;83.04;96611.34;4975014;28;20233;-57
2021/07/19 04:50:21;;;;;;;4.40;4.10;;;;;;;20.38;83.17;96621.72;4977060;28;20548;-61
2021/07/19 04:52:47;;;;;;;4.20;3.90;;;;;;;20.35;83.54;96616.94;4974296;28;20170;-57
2021/07/19 04:55:18;;;;;;;4.13;3.73;;;;;;;20.36;84.25;96623.88;4974965;28;20190;-56
2021/07/19 04:57:45;;;;;;;5.20;4.73;;;;;;;20.41;84.29;96619.28;4975236;28;20412;-62
2021/07/19 05:00:11;;;;;;;4.00;3.70;;;;;;;20.41;84.85;96615.81;4973442;28;20409;-62
2021/07/19 05:02:40;;;;;;;5.40;4.07;;;;;;;20.40;85.04;96620.34;5006694;28;20408;-59
2021/07/19 05:05:07;;;;;;;4.53;4.03;;;;;;;20.47;85.23;96622.72;5000233;28;20440;-56
2021/07/19 05:07:33;;;;;;;4.83;4.27;;;;;;;20.53;85.06;96618.88;4992060;28;20455;-62
2021/07/19 05:10:04;;;;;;;5.17;4.80;;;;;;;20.58;84.92;96620.72;4994122;28;20854;-62
2021/07/19 05:12:31;;;;;;;5.20;4.50;;;;;;;20.59;84.87;96622.31;4993850;28;20455;-62
2021/07/19 05:14:59;;;;;;;4.80;4.40;;;;;;;20.56;84.81;96626.38;4993678;28;20456;-56
2021/07/19 05:17:27;;;;;;;4.53;4.13;;;;;;;20.57;85.50;96614.59;4994078;28;20516;-62
2021/07/19 05:19:53;;;;;;;5.47;4.97;;;;;;;20.67;85.71;96624.38;4992521;28;20421;-63
2021/07/19 05:22:18;;;;;;;6.10;4.83;;;;;;;20.75;85.60;96624.56;4978705;28;20520;-62
2021/07/19 05:24:44;;;;;;;4.63;4.33;;;;;;;20.83;85.82;96628.47;4974086;28;20525;-56
2021/07/19 05:27:11;;;;;;;4.93;4.43;;;;;;;20.90;86.17;96634.28;4974592;28;20202;-56
2021/07/19 05:29:38;;;;;;;4.50;4.10;;;;;;;20.97;86.00;96627.53;4974636;28;20178;-62
2021/07/19 05:32:05;;;;;;;4.90;4.40;;;;;;;21.07;85.76;96624.75;4974445;28;20414;-56
2021/07/19 05:34:31;;;;;;;4.60;4.20;;;;;;;21.11;85.58;96619.63;4974035;28;20448;-62
2021/07/19 05:36:57;;;;;;;4.60;4.30;;;;;;;21.13;85.66;96617.47;4988121;28;20887;-62
2021/07/19 05:39:22;;;;;;;5.10;4.60;;;;;;;21.21;85.25;96619.53;4996896;28;20234;-62
2021/07/19 05:41:48;;;;;;;5.47;4.57;;;;;;;21.27;84.89;96624.50;4997929;28;20451;-62
2021/07/19 05:44:13;;;;;;;6.47;4.07;;;;;;;21.32;84.75;96624.44;4997382;28;20340;-56
2021/07/19 05:46:39;;;;;;;5.33;4.93;;;;;;;21.36;84.66;96622.78;4997644;28;20235;-56
2021/07/19 05:49:05;;;;;;;4.93;4.40;;;;;;;21.41;84.53;96622.72;4997787;28;20200;-62
2021/07/19 05:51:30;;;;;;;4.20;3.80;;;;;;;21.43;84.16;96617.88;4984782;28;20186;-57
2021/07/19 05:53:56;;;;;;;4.80;4.40;;;;;;;21.50;83.59;96623.66;4977606;28;20669;-57
2021/07/19 05:56:21;;;;;;;5.03;4.70;;;;;;;21.50;83.55;96628.25;4977993;28;20507;-56
2021/07/19 05:58:47;;;;;;;5.03;4.63;;;;;;;21.55;83.37;96628.16;4978056;28;20535;-62
2021/07/19 06:01:12;;;;;;;4.83;4.33;;;;;;;21.57;83.36;96630.53;4987903;28;20173;-62
2021/07/19 06:03:38;;;;;;;4.53;4.13;;;;;;;21.57;83.62;96625.19;5016558;28;20559;-62
2021/07/19 06:06:05;;;;;;;4.93;4.43;;;;;;;21.49;82.98;96624.75;5002167;28;20288;-56
2021/07/19 06:08:31;;;;;;;5.40;4.23;;;;;;;21.57;83.18;96628.66;4991158;28;20289;-56
2021/07/19 06:10:56;;;;;;;5.00;4.53;;;;;;;21.63;83.46;96626.72;4977764;28;20892;-56
2021/07/19 06:13:22;;;;;;;4.83;4.43;;;;;;;21.66;83.73;96629.63;4977397;28;20178;-62
2021/07/19 06:15:48;;;;;;;5.33;4.83;;;;;;;21.66;83.11;96631.50;4977899;28;20534;-61
2021/07/19 06:18:14;;;;;;;5.63;4.40;;;;;;;21.62;83.15;96628.59;4977883;28;20185;-56
2021/07/19 06:20:39;;;;;;;4.97;4.57;;;;;;;21.77;82.74;96624.91;4977711;28;20421;-57
2021/07/19 06:23:05;;;;;;;5.77;4.33;;;;;;;21.81;83.28;96616.06;4981557;28;20224;-62
2021/07/19 06:25:32;;;;;;;5.63;5.23;;;;;;;21.86;83.63;96615.19;4981137;28;20690;-57
2021/07/19 06:27:59;;;;;;;6.10;4.50;;;;;;;21.90;83.88;96619.66;4977460;28;20269;-62
2021/07/19 06:30:25;;;;;;;7.67;4.60;;;;;;;21.91;83.85;96617.78;4977337;28;20420;-62
2021/07/19 06:32:50;;;;;;;4.90;4.50;;;;;;;22.00;83.65;96616.03;4977054;28;20414;-62
2021/07/19 06:35:16;;;;;;;5.90;4.93;;;;;;;21.99;83.67;96625.97;4977094;28;20201;-62
2021/07/19 06:37:41;;;;;;;5.27;4.77;;;;;;;22.07;83.36;96627.16;4977263;28;20253;-56
2021/07/19 06:40:08;;;;;;;4.83;4.43;;;;;;;22.12;83.50;96624.41;4982943;28;20189;-56
2021/07/19 06:42:34;;;;;;;7.33;4.83;;;;;;;22.16;83.53;96623.53;4995263;28;20174;-62
2021/07/19 06:44:59;;;;;;;4.60;4.20;;;;;;;22.19;83.62;96614.91;4996176;28;20436;-57
2021/07/19 06:47:26;;;;;;;4.50;4.10;;;;;;;22.25;83.83;96616.41;4996692;28;20280;-56
2021/07/19 06:49:52;;;;;;;6.00;4.97;;;;;;;22.27;84.15;96618.78;4996207;28;20181;-57
2021/07/19 06:52:17;;;;;;;5.20;4.80;;;;;;;22.35;83.56;96616.25;4996621;28;20470;-62
2021/07/19 06:54:43;;;;;;;4.80;4.40;;;;;;;22.42;83.80;96615.88;4991317;28;20842;-62
2021/07/19 06:57:08;;;;;;;6.00;4.90;;;;;;;22.46;84.22;96608.84;4977288;28;20256;-56
2021/07/19 06:59:34;;;;;;;5.27;4.77;;;;;;;22.47;83.32;96605.06;4976881;28;20256;-62
2021/07/19 07:01:59;;;;;;;5.03;4.57;;;;;;;22.56;83.25;96607.91;4999377;28;20259;-56
2021/07/19 07:04:25;;;;;;;4.30;4.00;;;;;;;22.59;83.44;96610.78;5015336;28;20200;-62
2021/07/19 07:06:50;;;;;;;5.67;5.17;;;;;;;22.61;83.36;96607.81;5015671;28;20207;-57
2021/07/19 07:09:16;;;;;;;5.50;5.00;;;;;;;22.67;83.31;96609.28;5012947;28;20616;-57
2021/07/19 07:11:41;;;;;;;5.03;4.60;;;;;;;22.69;83.26;96599.06;4996226;28;20174;-62
2021/07/19 07:14:07;;;;;;;4.60;4.30;;;;;;;22.72;83.25;96603.84;4995731;28;20668;-56
2021/07/19 07:16:34;;;;;;;8.60;5.20;;;;;;;22.74;82.71;96590.97;4995854;28;20543;-56
2021/07/19 07:19:00;;;;;;;4.70;4.40;;;;;;;22.76;82.56;96599.47;4995721;28;20847;-57
2021/07/19 07:21:26;;;;;;;5.30;4.80;;;;;;;22.76;83.63;96602.16;4996082;28;20435;-56
2021/07/19 07:23:51;;;;;;;4.90;4.60;;;;;;;22.87;83.27;96599.00;4994807;28;20951;-64
2021/07/19 07:26:17;;;;;;;4.83;4.43;;;;;;;22.89;82.89;96599.50;4976434;28;20201;-57
2021/07/19 07:28:45;;;;;;;5.53;4.40;;;;;;;22.94;83.00;96603.94;4976492;28;20249;-57
2021/07/19 07:31:11;;;;;;;5.30;4.90;;;;;;;23.00;82.81;96600.88;4976593;28;20178;-64
2021/07/19 07:33:37;;;;;;;5.33;4.93;;;;;;;23.03;82.53;96599.47;4975843;28;20561;-57
2021/07/19 07:36:03;;;;;;;5.13;4.73;;;;;;;23.12;82.18;96600.38;4976384;28;20437;-57
2021/07/19 07:38:29;;;;;;;5.07;4.63;;;;;;;23.12;81.64;96595.00;4976089;28;20174;-56
2021/07/19 07:40:54;;;;;;;5.67;5.27;;;;;;;23.16;81.53;96602.16;4994759;28;20420;-64
2021/07/19 07:43:20;;;;;;;5.60;4.47;;;;;;;23.19;81.68;96593.50;4995344;28;20174;-64
2021/07/19 07:45:45;;;;;;;4.83;4.53;;;;;;;23.32;81.06;96597.31;4995324;28;20600;-57
2021/07/19 07:48:11;;;;;;;6.47;4.63;;;;;;;23.33;79.95;96602.38;4995553;28;20602;-64
2021/07/19 07:50:36;;;;;;;5.77;5.27;;;;;;;23.42;79.94;96602.47;4996399;28;20239;-57
2021/07/19 07:53:02;;;;;;;5.80;5.00;;;;;;;23.36;79.98;96598.28;5012247;28;20176;-57
2021/07/19 07:55:27;;;;;;;5.23;4.83;;;;;;;23.50;78.36;96599.06;4995643;28;20232;-63
2021/07/19 07:57:52;;;;;;;5.40;5.00;;;;;;;23.56;78.32;96603.22;4975968;28;20170;-64
2021/07/19 08:00:19;;;;;;;4.97;4.60;;;;;;;23.68;78.38;96597.34;4975452;28;20197;-64
2021/07/19 08:02:45;;;;;;;5.60;4.97;;;;;;;23.70;78.38;96595.94;5010131;28;20242;-57
2021/07/19 08:05:11;;;;;;;5.80;5.30;;;;;;;23.64;77.59;96593.66;5007978;28;20445;-57
2021/07/19 08:07:37;;;;;;;4.90;4.40;;;;;;;23.79;77.29;96594.09;5008510;28;20482;-62
2021/07/19 08:10:05;;;;;;;7.13;5.13;;;;;;;23.88;77.40;96599.56;4999179;28;20614;-64
2021/07/19 08:12:31;;;;;;;5.90;5.40;;;;;;;23.94;76.78;96590.28;4984450;28;20958;-63
2021/07/19 08:14:58;;;;;;;5.00;4.60;;;;;;;24.00;77.23;96595.28;4977936;28;20520;-64
2021/07/19 08:17:24;;;;;;;6.03;5.53;;;;;;;24.07;76.90;96594.84;4979086;28;20220;-64
2021/07/19 08:19:49;;;;;;;5.50;4.70;;;;;;;24.18;76.87;96598.88;4995044;28;20421;-57
2021/07/19 08:22:15;;;;;;;5.33;4.97;;;;;;;24.27;76.35;96589.78;4993357;28;20177;-58
2021/07/19 08:24:41;;;;;;;5.10;4.60;;;;;;;24.22;75.09;96587.19;4990523;28;20193;-57
2021/07/19 08:27:07;;;;;;;5.20;4.80;;;;;;;24.39;74.87;96592.69;4991364;28;20263;-56
2021/07/19 08:29:33;;;;;;;5.37;4.97;;;;;;;24.41;75.27;96593.16;4987740;28;20536;-58
2021/07/19 08:31:58;;;;;;;5.53;5.03;;;;;;;24.49;75.11;96587.03;4971785;28;20409;-63
2021/07/19 08:34:24;;;;;;;6.03;5.40;;;;;;;24.56;74.50;96588.50;4970917;28;20202;-64
2021/07/19 08:36:49;;;;;;;5.57;5.00;;;;;;;24.65;73.98;96589.31;4985828;28;20208;-58
2021/07/19 08:39:15;;;;;;;6.73;5.10;;;;;;;24.77;73.61;96584.97;4991098;28;20173;-58
2021/07/19 08:41:41;;;;;;;4.57;4.17;;;;;;;24.84;73.98;96587.25;4971900;28;20189;-60
2021/07/19 08:44:10;;;;;;;5.33;4.57;;;;;;;24.91;73.87;96588.34;4971314;28;20444;-58
2021/07/19 08:46:35;;;;;;;5.17;4.67;;;;;;;24.96;74.19;96590.13;4970776;28;20218;-60
2021/07/19 08:49:01;;;;;;;6.50;5.90;;;;;;;25.05;73.53;96586.38;4971538;28;20476;-64
2021/07/19 08:51:27;;;;;;;8.57;5.80;;;;;;;25.07;71.31;96586.84;4971510;28;20269;-63
2021/07/19 08:53:54;;;;;;;5.93;4.70;;;;;;;25.00;70.66;96591.09;4969890;28;20325;-63
2021/07/19 08:56:20;;;;;;;5.30;4.90;;;;;;;25.01;73.08;96581.91;4989493;28;20949;-65
2021/07/19 08:58:46;;;;;;;5.77;5.27;;;;;;;24.94;72.98;96582.38;4990308;28;20420;-67
2021/07/19 09:01:13;;;;;;;17.60;6.97;;;;;;;25.00;72.94;96577.66;4994666;28;20891;-63
2021/07/19 09:03:39;;;;;;;5.70;5.20;;;;;;;25.15;72.66;96590.66;5009850;28;20899;-66
2021/07/19 09:06:05;;;;;;;18.73;12.03;;;;;;;25.18;71.76;96579.28;5010223;28;20408;-68
2021/07/19 09:08:30;;;;;;;15.43;10.87;;;;;;;25.24;71.55;96572.63;4998977;28;20417;-59
2021/07/19 09:11:07;;;;;;;9.87;7.43;;;;;;;25.20;71.97;96583.22;4993656;28;20182;-58
2021/07/19 09:13:32;;;;;;;7.90;6.90;;;;;;;25.14;70.96;96575.63;4993690;28;20180;-59
2021/07/19 09:15:58;;;;;;;7.93;7.23;;;;;;;24.99;69.82;96584.91;4983685;28;20417;-67
2021/07/19 09:18:24;;;;;;;6.30;5.70;;;;;;;25.24;70.56;96575.31;4974660;28;20198;-58
2021/07/19 09:20:50;;;;;;;6.10;5.40;;;;;;;25.36;71.92;96578.22;4973371;28;20178;-68
2021/07/19 09:23:28;;;;;;;8.43;7.60;;;;;;;25.45;71.67;96577.13;4974227;28;20525;-58
2021/07/19 09:25:56;;;;;;;8.07;6.47;;;;;;;25.62;70.80;96576.34;4990773;28;20432;-68
2021/07/19 09:28:28;;;;;;;7.83;6.30;;;;;;;25.70;68.56;96577.47;4977022;28;20516;-68
2021/07/19 09:30:54;;;;;;;5.50;5.00;;;;;;;25.88;68.18;96573.66;4974452;28;20409;-68
2021/07/19 09:33:19;;;;;;;5.33;4.90;;;;;;;25.95;66.99;96577.47;4973937;28;20416;-68
2021/07/19 09:35:49;;;;;;;4.80;4.40;;;;;;;26.06;66.38;96573.38;4974545;28;20170;-67
2021/07/19 09:38:17;;;;;;;5.23;4.83;;;;;;;26.08;66.92;96568.47;4974361;28;20170;-67
2021/07/19 09:40:45;;;;;;;5.37;4.70;;;;;;;26.26;66.75;96575.41;4974541;28;20490;-59
2021/07/19 09:43:20;;;;;;;4.93;4.53;;;;;;;26.51;68.31;96576.44;4988429;28;20420;-58
2021/07/19 09:45:56;;;;;;;4.77;4.37;;;;;;;26.68;67.50;96572.91;4993769;28;20482;-67
2021/07/19 09:48:22;;;;;;;5.57;5.17;;;;;;;26.82;67.07;96568.91;4994031;28;20427;-58
2021/07/19 09:50:52;;;;;;;6.13;4.70;;;;;;;26.90;64.60;96567.31;4993981;28;20479;-58
2021/07/19 09:53:33;;;;;;;5.13;4.73;;;;;;;26.94;64.18;96565.56;4993507;28;20636;-59
2021/07/19 09:56:19;;;;;;;5.63;4.73;;;;;;;27.07;65.40;96561.81;4993879;28;20405;-68
2021/07/19 09:58:47;;;;;;;5.30;4.80;;;;;;;27.21;65.80;96571.25;4974535;28;20420;-67
2021/07/19 10:01:31;;;;;;;5.20;4.70;;;;;;;27.20;63.58;96568.88;4994196;28;20465;-58
2021/07/19 10:04:17;;;;;;;6.77;4.70;;;;;;;27.24;63.35;96569.81;5011663;28;20441;-58
2021/07/19 10:06:45;;;;;;;4.90;4.50;;;;;;;27.19;62.18;96567.31;5009543;28;20556;-67
2021/07/19 10:09:13;;;;;;;5.70;4.53;;;;;;;27.19;63.02;96564.63;4993702;28;20420;-58
2021/07/19 10:11:44;;;;;;;5.23;4.83;;;;;;;27.07;65.08;96567.19;4993780;28;20531;-58
2021/07/19 10:14:09;;;;;;;5.50;4.53;;;;;;;27.03;62.57;96547.41;4992780;28;20428;-65
2021/07/19 10:16:36;;;;;;;4.67;4.27;;;;;;;27.05;66.69;96555.97;4993727;28;20413;-58
2021/07/19 10:19:04;;;;;;;5.23;4.83;;;;;;;27.07;65.77;96548.31;4981087;28;20205;-65
2021/07/19 10:21:31;;;;;;;4.90;4.47;;;;;;;27.21;62.47;96543.50;4993542;28;20879;-66
2021/07/19 10:24:08;;;;;;;4.93;4.53;;;;;;;27.26;62.27;96546.00;4993653;28;20487;-66
2021/07/19 10:26:36;;;;;;;5.10;4.70;;;;;;;27.27;61.60;96547.56;4997050;28;20452;-58
2021/07/19 10:29:03;;;;;;;5.20;4.70;;;;;;;27.33;61.81;96546.28;4996846;28;20459;-65
2021/07/19 10:31:29;;;;;;;5.43;4.93;;;;;;;27.32;62.30;96548.19;4996841;28;20423;-68
2021/07/19 10:33:57;;;;;;;5.13;4.60;;;;;;;27.31;60.74;96543.94;4996263;28;20456;-66
2021/07/19 10:36:38;;;;;;;5.37;4.87;;;;;;;27.48;60.68;96551.13;4996915;28;20185;-66
2021/07/19 10:39:10;;;;;;;5.40;4.73;;;;;;;27.69;60.12;96546.50;4979894;28;20424;-66
2021/07/19 10:41:37;;;;;;;5.00;4.57;;;;;;;27.81;60.04;96543.84;4987187;28;20461;-66
2021/07/19 10:44:08;;;;;;;5.17;4.67;;;;;;;27.95;59.38;96535.50;4976729;28;20441;-66
2021/07/19 10:46:34;;;;;;;4.10;3.70;;;;;;;28.08;57.87;96535.19;4976971;28;20561;-61
2021/07/19 10:49:20;;;;;;;4.50;4.20;;;;;;;28.09;57.96;96528.69;4977366;28;20438;-61
2021/07/19 10:51:47;;;;;;;4.27;3.87;;;;;;;28.11;56.67;96533.75;4976655;28;20204;-63
2021/07/19 10:54:12;;;;;;;3.43;3.20;;;;;;;28.29;55.70;96527.06;4992898;28;20491;-66
2021/07/19 10:56:38;;;;;;;3.70;3.40;;;;;;;28.41;55.39;96530.56;4996471;28;20507;-61
2021/07/19 10:59:03;;;;;;;4.13;3.83;;;;;;;28.57;55.13;96528.06;4996376;28;20177;-61
2021/07/19 11:01:31;;;;;;;4.53;4.13;;;;;;;28.67;54.09;96534.91;5003403;28;20199;-59
2021/07/19 11:03:59;;;;;;;4.63;4.23;;;;;;;28.67;53.83;96535.72;5015287;28;20189;-59
2021/07/19 11:06:36;;;;;;;4.37;4.07;;;;;;;28.65;54.16;96529.84;5015636;28;20462;-63
2021/07/19 11:09:04;;;;;;;4.03;3.73;;;;;;;28.66;54.19;96530.66;4978254;28;20424;-57
2021/07/19 11:11:32;;;;;;;3.90;3.60;;;;;;;28.55;54.57;96522.19;5007367;28;20424;-64
2021/07/19 11:14:03;;;;;;;4.13;3.73;;;;;;;28.76;54.64;96522.06;4995232;28;20447;-57
2021/07/19 11:16:46;;;;;;;3.90;3.60;;;;;;;28.90;53.98;96520.59;5006053;28;20519;-62
2021/07/19 11:19:12;;;;;;;3.83;3.50;;;;;;;28.96;51.75;96518.47;5015515;28;20483;-62
2021/07/19 11:21:38;;;;;;;4.03;3.73;;;;;;;29.01;52.52;96516.31;5015415;28;20416;-57
2021/07/19 11:24:12;;;;;;;3.40;3.20;;;;;;;29.09;52.81;96514.63;5015040;28;20462;-58
2021/07/19 11:27:07;;;;;;;4.33;3.63;;;;;;;29.07;52.04;96517.69;5015430;28;20455;-62
2021/07/19 11:29:35;;;;;;;4.13;3.83;;;;;;;28.94;52.21;96521.50;4983028;28;20465;-62
2021/07/19 11:32:17;;;;;;;4.17;3.70;;;;;;;28.92;51.03;96517.56;4976347;28;20406;-58
2021/07/19 11:34:44;;;;;;;3.97;3.67;;;;;;;28.82;51.35;96510.69;4975845;28;20433;-62
2021/07/19 11:37:10;;;;;;;3.50;3.20;;;;;;;28.76;51.23;96509.34;4977515;28;21163;-58